createdAt,value
2023-04-13T00:01:15.990Z,2.02
2023-04-13T00:03:46.116Z,3.13
2023-04-13T00:06:16.207Z,2.80
2023-04-13T00:08:46.675Z,2.50
2023-04-13T00:11:17.721Z,0.80
2023-04-13T00:13:47.658Z,2.50
2023-04-13T00:16:18.193Z,5.67
2023-04-13T00:18:47.997Z,2.70
2023-04-13T00:21:19.434Z,2.00
2023-04-13T00:23:49.197Z,1.93
2023-04-13T00:26:20.678Z,2.47
2023-04-13T00:28:50.526Z,3.63
2023-04-13T00:31:21.147Z,2.83
2023-04-13T00:33:51.387Z,3.73
2023-04-13T00:36:23.363Z,2.17
2023-04-13T00:38:54.472Z,3.00
2023-04-13T00:41:27.721Z,3.97
2023-04-13T00:43:59.030Z,3.20
2023-04-13T00:46:29.793Z,6.65
2023-04-13T00:49:01.989Z,5.55
2023-04-13T00:51:33.121Z,4.77
2023-04-13T00:54:03.045Z,2.27
2023-04-13T00:56:33.668Z,4.90
2023-04-13T00:59:03.830Z,4.10
2023-04-13T01:01:33.685Z,4.33
2023-04-13T01:04:03.587Z,2.50
2023-04-13T01:06:40.706Z,4.37
2023-04-13T01:09:19.108Z,4.50
2023-04-13T01:11:57.737Z,1.77
2023-04-13T01:14:39.499Z,2.33
2023-04-13T01:17:15.314Z,4.00
2023-04-13T01:20:04.375Z,3.70
2023-04-13T01:22:36.903Z,3.67
2023-04-13T01:25:36.759Z,3.63
2023-04-13T01:28:15.781Z,3.87
2023-04-13T01:30:47.495Z,3.93
2023-04-13T01:33:17.930Z,7.17
2023-04-13T01:35:48.656Z,3.93
2023-04-13T01:38:23.552Z,4.53
2023-04-13T01:40:54.639Z,10.00
2023-04-13T01:43:26.735Z,1.95
2023-04-13T01:46:14.197Z,2.40
2023-04-13T01:48:56.729Z,3.37
2023-04-13T01:51:48.512Z,4.00
2023-04-13T01:54:23.194Z,8.77
2023-04-13T01:56:53.728Z,7.03
2023-04-13T01:59:23.943Z,3.13
2023-04-13T02:01:54.582Z,5.00
2023-04-13T02:04:24.598Z,4.85
2023-04-13T02:06:54.764Z,3.57
2023-04-13T02:09:33.209Z,1.92
2023-04-13T02:12:03.476Z,7.23
2023-04-13T02:14:33.456Z,2.25
2023-04-13T02:17:03.286Z,4.60
2023-04-13T02:19:34.662Z,4.47
2023-04-13T02:22:07.146Z,3.77
2023-04-13T02:24:36.944Z,4.10
2023-04-13T02:27:06.773Z,4.73
2023-04-13T02:29:36.613Z,3.03
2023-04-13T02:32:08.074Z,5.10
2023-04-13T02:34:38.031Z,2.00
2023-04-13T02:37:09.191Z,4.93
2023-04-13T02:39:39.200Z,3.83
2023-04-13T02:42:11.736Z,9.34
2023-04-13T02:44:41.567Z,5.67
2023-04-13T02:47:11.496Z,2.37
2023-04-13T02:49:42.408Z,4.20
2023-04-13T02:52:17.586Z,3.22
2023-04-13T02:54:50.745Z,4.37
2023-04-13T02:57:20.345Z,5.70
2023-04-13T02:59:53.215Z,5.73
2023-04-13T03:02:25.969Z,2.58
2023-04-13T03:04:56.325Z,3.50
2023-04-13T03:07:26.976Z,6.27
2023-04-13T03:09:57.339Z,3.63
2023-04-13T03:12:27.123Z,4.50
2023-04-13T03:14:56.895Z,5.40
2023-04-13T03:17:28.214Z,3.57
2023-04-13T03:19:59.713Z,6.15
2023-04-13T03:22:30.133Z,4.37
2023-04-13T03:25:01.528Z,8.90
2023-04-13T03:27:33.062Z,2.87
2023-04-13T03:30:03.361Z,3.67
2023-04-13T03:32:34.964Z,6.47
2023-04-13T03:35:05.296Z,8.17
2023-04-13T03:37:36.727Z,3.60
2023-04-13T03:40:10.624Z,4.33
2023-04-13T03:42:42.434Z,8.20
2023-04-13T03:45:12.662Z,3.02
2023-04-13T03:47:42.640Z,5.20
2023-04-13T03:50:13.463Z,4.17
2023-04-13T03:52:43.623Z,10.13
2023-04-13T03:55:14.012Z,6.55
2023-04-13T03:57:44.420Z,3.57
2023-04-13T04:00:16.367Z,6.03
2023-04-13T04:02:48.254Z,4.47
2023-04-13T04:05:19.837Z,3.00
2023-04-13T04:07:51.586Z,6.05
2023-04-13T04:10:21.656Z,5.20
2023-04-13T04:12:51.803Z,7.90
2023-04-13T04:15:21.657Z,11.10
2023-04-13T04:17:53.292Z,4.23
2023-04-13T04:20:23.493Z,5.83
2023-04-13T04:22:54.099Z,10.37
2023-04-13T04:25:24.222Z,8.10
2023-04-13T04:27:56.031Z,7.43
2023-04-13T04:30:29.899Z,8.40
2023-04-13T04:32:59.886Z,7.93
2023-04-13T04:35:34.534Z,6.47
2023-04-13T04:38:06.489Z,10.30
2023-04-13T04:40:38.043Z,14.00
2023-04-13T04:43:08.513Z,9.67
2023-04-13T04:45:46.956Z,10.80
2023-04-13T04:48:17.266Z,13.30
2023-04-13T04:50:48.961Z,11.33
2023-04-13T04:53:19.192Z,12.83
2023-04-13T04:55:48.822Z,17.40
2023-04-13T04:58:23.288Z,18.97
2023-04-13T05:00:56.707Z,13.55
2023-04-13T05:03:26.596Z,14.50
2023-04-13T05:05:58.240Z,15.60
2023-04-13T05:08:29.769Z,15.17
2023-04-13T05:10:59.634Z,16.60
2023-04-13T05:13:29.836Z,15.73
2023-04-13T05:16:01.580Z,16.20
2023-04-13T05:18:35.940Z,16.00
2023-04-13T05:21:05.968Z,12.80
2023-04-13T05:23:36.021Z,19.63
2023-04-13T05:26:12.469Z,16.95
2023-04-13T05:28:42.714Z,13.68
2023-04-13T05:31:13.223Z,13.00
2023-04-13T05:33:44.948Z,15.50
2023-04-13T05:36:14.773Z,14.50
2023-04-13T05:38:45.867Z,14.05
2023-04-13T05:41:17.491Z,10.83
2023-04-13T05:43:49.147Z,16.17
2023-04-13T05:46:18.932Z,15.13
2023-04-13T05:48:48.929Z,12.00
2023-04-13T05:51:19.515Z,11.65
2023-04-13T05:53:49.831Z,14.20
2023-04-13T05:56:20.372Z,15.30
2023-04-13T05:58:50.658Z,11.60
2023-04-13T06:01:23.528Z,18.53
2023-04-13T06:03:54.776Z,16.13
2023-04-13T06:06:26.418Z,17.00
2023-04-13T06:08:57.267Z,12.88
2023-04-13T06:11:27.629Z,15.47
2023-04-13T06:13:59.975Z,15.37
2023-04-13T06:16:29.040Z,14.77
2023-04-13T06:19:00.328Z,13.23
2023-04-13T06:21:30.503Z,12.63
2023-04-13T06:24:00.954Z,13.77
2023-04-13T06:26:33.231Z,9.53
2023-04-13T06:29:04.073Z,13.23
2023-04-13T06:31:37.076Z,11.83
2023-04-13T06:34:11.089Z,13.75
2023-04-13T06:36:41.079Z,9.33
2023-04-13T06:39:12.348Z,14.53
2023-04-13T06:41:43.264Z,11.57
2023-04-13T06:44:15.258Z,11.10
2023-04-13T06:46:46.888Z,7.27
2023-04-13T06:49:16.832Z,8.63
2023-04-13T06:51:47.030Z,8.78
2023-04-13T06:54:16.880Z,11.55
2023-04-13T06:56:48.688Z,7.67
2023-04-13T06:59:20.318Z,9.63
2023-04-13T07:01:50.297Z,6.57
2023-04-13T07:04:20.219Z,7.75
2023-04-13T07:06:50.169Z,7.33
2023-04-13T07:09:20.436Z,9.20
2023-04-13T07:11:50.428Z,9.40
2023-04-13T07:14:20.041Z,8.40
2023-04-13T07:16:50.192Z,9.40
2023-04-13T07:19:21.950Z,6.90
2023-04-13T07:21:51.783Z,11.60
2023-04-13T07:24:21.680Z,11.75
2023-04-13T07:26:51.567Z,8.00
2023-04-13T07:29:21.525Z,11.67
2023-04-13T07:31:53.578Z,12.53
2023-04-13T07:34:23.204Z,11.65
2023-04-13T07:36:53.099Z,10.57
2023-04-13T07:39:24.216Z,10.72
2023-04-13T07:41:56.573Z,9.30
2023-04-13T07:44:27.921Z,8.87
2023-04-13T07:46:57.924Z,10.93
2023-04-13T07:49:28.363Z,22.45
2023-04-13T07:52:00.193Z,14.63
2023-04-13T07:54:31.787Z,17.43
2023-04-13T07:57:02.927Z,13.93
2023-04-13T07:59:34.364Z,14.30
2023-04-13T08:02:07.030Z,13.67
2023-04-13T08:04:38.119Z,15.00
2023-04-13T08:07:08.492Z,11.53
2023-04-13T08:09:40.720Z,17.05
2023-04-13T08:12:11.425Z,9.35
2023-04-13T08:14:42.979Z,11.87
2023-04-13T08:17:12.907Z,16.13
2023-04-13T08:19:42.823Z,20.13
2023-04-13T08:22:14.560Z,12.77
2023-04-13T08:24:45.711Z,13.15
2023-04-13T08:27:15.631Z,15.30
2023-04-13T08:29:46.739Z,21.27
2023-04-13T08:32:18.464Z,11.80
2023-04-13T08:34:48.748Z,16.97
2023-04-13T08:37:19.978Z,14.13
2023-04-13T08:39:52.211Z,16.23
2023-04-13T08:42:23.600Z,12.98
2023-04-13T08:44:55.468Z,14.23
2023-04-13T08:47:29.944Z,12.63
2023-04-13T08:50:01.903Z,11.60
2023-04-13T08:52:42.381Z,7.10
2023-04-13T08:55:15.673Z,8.05
2023-04-13T08:57:51.412Z,10.88
2023-04-13T09:00:23.846Z,8.20
2023-04-13T09:03:04.486Z,5.50
2023-04-13T09:05:31.630Z,6.85
2023-04-13T09:08:07.042Z,4.23
2023-04-13T09:10:38.385Z,9.27
2023-04-13T09:13:09.853Z,10.53
2023-04-13T09:15:40.968Z,7.70
2023-04-13T09:18:16.012Z,11.27
2023-04-13T09:21:03.138Z,12.93
2023-04-13T09:23:33.426Z,13.13
2023-04-13T09:26:08.048Z,9.67
2023-04-13T09:28:51.379Z,11.07
2023-04-13T09:31:21.776Z,15.93
2023-04-13T09:33:53.646Z,10.75
2023-04-13T09:36:25.116Z,13.10
2023-04-13T09:38:58.145Z,16.00
2023-04-13T09:41:42.955Z,23.52
2023-04-13T09:44:20.609Z,12.80
2023-04-13T09:47:03.754Z,16.15
2023-04-13T09:49:43.871Z,11.27
2023-04-13T09:52:26.087Z,10.72
2023-04-13T09:55:00.908Z,16.83
2023-04-13T09:57:33.994Z,11.63
2023-04-13T10:00:09.692Z,14.30
2023-04-13T10:02:43.593Z,15.23
2023-04-13T10:05:13.978Z,14.45
2023-04-13T10:07:47.789Z,11.90
2023-04-13T10:10:17.744Z,13.13
2023-04-13T10:12:50.658Z,13.63
2023-04-13T10:15:39.835Z,16.75
2023-04-13T10:18:27.296Z,12.50
2023-04-13T10:21:00.360Z,13.70
2023-04-13T10:23:32.835Z,9.30
2023-04-13T10:26:03.951Z,13.90
2023-04-13T10:28:46.803Z,12.77
2023-04-13T10:31:16.870Z,15.93
2023-04-13T10:33:51.570Z,8.13
2023-04-13T10:36:21.463Z,8.08
2023-04-13T10:38:51.657Z,9.65
2023-04-13T10:41:25.592Z,8.07
2023-04-13T10:44:10.623Z,7.80
2023-04-13T10:46:42.257Z,11.48
2023-04-13T10:49:12.232Z,14.83
2023-04-13T10:51:44.260Z,11.87
2023-04-13T10:54:15.440Z,15.55
2023-04-13T10:56:45.421Z,16.97
2023-04-13T10:59:16.501Z,9.47
2023-04-13T11:01:47.393Z,11.65
2023-04-13T11:04:19.015Z,17.60
2023-04-13T11:06:51.163Z,10.80
2023-04-13T11:09:22.987Z,9.60
2023-04-13T11:11:53.059Z,12.30
2023-04-13T11:14:23.211Z,7.90
2023-04-13T11:16:58.354Z,8.57
2023-04-13T11:19:24.547Z,13.80
2023-04-13T11:21:59.056Z,10.00
2023-04-13T11:24:34.310Z,6.30
2023-04-13T11:27:05.472Z,9.43
2023-04-13T11:29:35.281Z,6.70
2023-04-13T11:32:07.117Z,12.90
2023-04-13T11:34:37.037Z,9.53
2023-04-13T11:37:07.389Z,13.10
2023-04-13T11:39:39.283Z,8.80
2023-04-13T11:42:10.633Z,13.20
2023-04-13T11:44:42.763Z,6.57
2023-04-13T11:47:15.778Z,12.87
2023-04-13T11:49:47.504Z,10.87
2023-04-13T11:52:17.873Z,10.93
2023-04-13T11:54:49.015Z,10.43
2023-04-13T11:57:19.396Z,6.70
2023-04-13T11:59:49.309Z,10.70
2023-04-13T12:02:29.818Z,10.83
2023-04-13T12:04:59.112Z,8.50
2023-04-13T12:07:29.881Z,7.23
2023-04-13T12:10:05.376Z,8.43
2023-04-13T12:12:51.421Z,10.30
2023-04-13T12:15:17.005Z,9.73
2023-04-13T12:17:40.934Z,13.77
2023-04-13T12:20:13.198Z,6.37
2023-04-13T12:25:24.436Z,9.43
2023-04-13T12:27:55.175Z,11.07
2023-04-13T12:30:24.852Z,8.23
2023-04-13T12:32:56.858Z,11.12
2023-04-13T12:35:26.725Z,6.47
2023-04-13T12:37:56.704Z,4.97
2023-04-13T12:40:27.302Z,9.53
2023-04-13T12:42:57.111Z,12.73
2023-04-13T12:45:28.469Z,11.63
2023-04-13T12:47:58.394Z,10.30
2023-04-13T12:50:27.932Z,6.60
2023-04-13T12:52:57.728Z,4.00
2023-04-13T12:55:27.552Z,7.50
2023-04-13T12:57:58.243Z,4.43
2023-04-13T13:00:28.134Z,8.67
2023-04-13T13:03:10.474Z,7.70
2023-04-13T13:05:29.582Z,8.07
2023-04-13T13:07:59.768Z,7.08
2023-04-13T13:10:30.313Z,8.40
2023-04-13T13:13:01.862Z,8.07
2023-04-13T13:15:32.492Z,8.95
2023-04-13T13:18:04.128Z,13.67
2023-04-13T13:20:34.039Z,6.27
2023-04-13T13:23:03.876Z,7.27
2023-04-13T13:25:35.885Z,10.93
2023-04-13T13:28:14.998Z,11.53
2023-04-13T13:30:41.274Z,7.20
2023-04-13T13:33:11.211Z,8.63
2023-04-13T13:35:41.695Z,7.07
2023-04-13T13:38:11.938Z,3.85
2023-04-13T13:40:41.735Z,3.80
2023-04-13T13:43:12.041Z,8.30
2023-04-13T13:45:42.209Z,3.47
2023-04-13T13:48:12.089Z,7.67
2023-04-13T13:50:43.613Z,5.73
2023-04-13T13:53:14.909Z,7.43
2023-04-13T13:55:44.810Z,6.67
2023-04-13T13:58:14.337Z,8.55
2023-04-13T14:00:44.810Z,7.80
2023-04-13T14:03:16.629Z,9.50
2023-04-13T14:05:46.663Z,4.67
2023-04-13T14:08:16.283Z,8.97
2023-04-13T14:10:47.812Z,10.73
2023-04-13T14:13:17.846Z,9.40
2023-04-13T14:15:47.846Z,5.77
2023-04-13T14:18:18.045Z,6.97
2023-04-13T14:20:47.692Z,10.35
2023-04-13T14:23:18.878Z,9.23
2023-04-13T14:25:48.660Z,9.40
2023-04-13T14:28:18.585Z,6.47
2023-04-13T14:30:48.910Z,6.87
2023-04-13T14:33:18.966Z,4.53
2023-04-13T14:35:48.738Z,5.77
2023-04-13T14:38:18.258Z,6.80
2023-04-13T14:40:48.142Z,5.50
2023-04-13T14:43:18.393Z,10.03
2023-04-13T14:45:48.577Z,9.03
2023-04-13T14:48:18.194Z,7.58
2023-04-13T14:50:48.041Z,8.77
2023-04-13T14:53:18.535Z,8.87
2023-04-13T14:55:48.437Z,9.83
2023-04-13T14:58:17.951Z,8.07
2023-04-13T15:00:47.788Z,7.53
2023-04-13T15:03:17.797Z,5.03
2023-04-13T15:05:48.536Z,10.38
2023-04-13T15:08:19.565Z,5.97
2023-04-13T15:10:49.522Z,9.00
2023-04-13T15:13:19.732Z,10.25
2023-04-13T15:15:51.170Z,7.03
2023-04-13T15:18:21.095Z,11.08
2023-04-13T15:20:51.205Z,3.92
2023-04-13T15:23:21.099Z,9.73
2023-04-13T15:25:50.984Z,8.60
2023-04-13T15:28:20.827Z,9.88
2023-04-13T15:30:53.926Z,7.80
2023-04-13T15:33:23.957Z,6.43
2023-04-13T15:35:53.845Z,10.40
2023-04-13T15:38:23.687Z,8.90
2023-04-13T15:40:53.512Z,7.00
2023-04-13T15:43:23.695Z,10.80
2023-04-13T15:45:53.841Z,7.35
2023-04-13T15:48:23.613Z,5.70
2023-04-13T15:50:56.522Z,5.33
2023-04-13T15:53:26.981Z,5.43
2023-04-13T15:55:56.866Z,6.30
2023-04-13T15:58:26.466Z,7.10
2023-04-13T16:01:04.952Z,6.47
2023-04-13T16:03:36.017Z,5.53
2023-04-13T16:06:08.722Z,9.90
2023-04-13T16:08:40.062Z,8.63
2023-04-13T16:11:09.840Z,5.37
2023-04-13T16:13:48.192Z,6.45
2023-04-13T16:16:13.180Z,5.37
2023-04-13T16:18:43.074Z,9.30
2023-04-13T16:21:13.128Z,9.17
2023-04-13T16:23:43.494Z,7.50
2023-04-13T16:26:13.465Z,5.75
2023-04-13T16:28:43.316Z,7.00
2023-04-13T16:31:13.204Z,10.43
2023-04-13T16:33:43.095Z,8.37
2023-04-13T16:36:12.882Z,7.12
2023-04-13T16:38:42.782Z,5.73
2023-04-13T16:41:12.671Z,8.03
2023-04-13T16:43:42.525Z,11.63
2023-04-13T16:46:14.021Z,10.03
2023-04-13T16:48:43.899Z,8.70
2023-04-13T16:51:14.006Z,11.63
2023-04-13T16:53:44.290Z,7.90
2023-04-13T16:56:16.586Z,6.85
2023-04-13T16:58:45.782Z,8.40
2023-04-13T17:01:16.008Z,6.12
2023-04-13T17:03:46.212Z,4.70
2023-04-13T17:06:16.359Z,6.90
2023-04-13T17:08:46.185Z,6.83
2023-04-13T17:11:16.350Z,3.87
2023-04-13T17:13:46.723Z,6.80
2023-04-13T17:16:17.357Z,4.97
2023-04-13T17:18:47.265Z,4.30
2023-04-13T17:21:17.217Z,4.17
2023-04-13T17:23:47.889Z,7.43
2023-04-13T17:26:17.855Z,7.80
2023-04-13T17:28:47.646Z,5.00
2023-04-13T17:31:17.600Z,5.67
2023-04-13T17:33:50.309Z,8.43
2023-04-13T17:36:19.132Z,4.13
2023-04-13T17:38:48.974Z,9.80
2023-04-13T17:41:18.775Z,7.93
2023-04-13T17:43:48.641Z,5.73
2023-04-13T17:46:18.563Z,8.38
2023-04-13T17:48:48.109Z,4.97
2023-04-13T17:51:17.954Z,9.03
2023-04-13T17:53:47.758Z,9.63
2023-04-13T17:56:20.382Z,9.93
2023-04-13T17:58:50.550Z,12.73
2023-04-13T18:01:21.853Z,7.80
2023-04-13T18:03:52.208Z,9.50
2023-04-13T18:06:22.080Z,8.57
2023-04-13T18:08:51.913Z,4.13
2023-04-13T18:11:21.717Z,8.10
2023-04-13T18:13:51.860Z,5.03
2023-04-13T18:16:21.678Z,7.35
2023-04-13T18:18:51.496Z,5.90
2023-04-13T18:21:21.317Z,9.10
2023-04-13T18:23:51.449Z,6.07
2023-04-13T18:26:22.641Z,8.93
2023-04-13T18:28:52.971Z,7.42
2023-04-13T18:31:23.230Z,8.27
2023-04-13T18:33:53.042Z,8.87
2023-04-13T18:36:24.536Z,10.70
2023-04-13T18:38:54.889Z,4.77
2023-04-13T18:41:24.789Z,9.93
2023-04-13T18:43:55.040Z,4.05
2023-04-13T18:46:27.726Z,8.63
2023-04-13T18:48:57.635Z,7.23
2023-04-13T18:51:27.995Z,8.07
2023-04-13T18:53:58.177Z,11.73
2023-04-13T18:56:27.960Z,6.78
2023-04-13T18:58:57.928Z,9.93
2023-04-13T19:01:27.775Z,8.37
2023-04-13T19:03:58.560Z,5.20
2023-04-13T19:06:28.889Z,4.93
2023-04-13T19:08:58.789Z,8.10
2023-04-13T19:11:28.631Z,3.93
2023-04-13T19:13:58.389Z,5.50
2023-04-13T19:16:28.994Z,7.27
2023-04-13T19:18:58.886Z,4.37
2023-04-13T19:21:28.993Z,10.82
2023-04-13T19:23:58.995Z,7.60
2023-04-13T19:26:29.342Z,8.13
2023-04-13T19:29:00.358Z,11.20
2023-04-13T19:31:30.184Z,9.27
2023-04-13T19:34:00.292Z,7.30
2023-04-13T19:36:31.555Z,9.63
2023-04-13T19:39:03.101Z,8.50
2023-04-13T19:41:34.624Z,7.08
2023-04-13T19:44:08.774Z,9.00
2023-04-13T19:46:38.860Z,10.40
2023-04-13T19:49:08.847Z,5.73
2023-04-13T19:51:39.040Z,12.90
2023-04-13T19:54:11.198Z,10.18
2023-04-13T19:56:41.187Z,10.63
2023-04-13T19:59:11.040Z,6.50
2023-04-13T20:01:40.937Z,8.00
2023-04-13T20:04:11.763Z,6.50
2023-04-13T20:06:41.876Z,8.80
2023-04-13T20:09:14.175Z,7.07
2023-04-13T20:11:44.052Z,6.03
2023-04-13T20:14:14.373Z,6.72
2023-04-13T20:16:44.178Z,6.97
2023-04-13T20:19:14.080Z,9.60
2023-04-13T20:21:45.524Z,8.50
2023-04-13T20:24:15.438Z,5.33
2023-04-13T20:26:45.582Z,8.75
2023-04-13T20:29:19.873Z,5.33
2023-04-13T20:31:50.343Z,6.05
2023-04-13T20:34:20.499Z,7.90
2023-04-13T20:36:50.844Z,3.50
2023-04-13T20:39:22.370Z,5.23
2023-04-13T20:41:53.981Z,4.53
2023-04-13T20:44:27.819Z,6.92
2023-04-13T20:46:57.711Z,7.67
2023-04-13T20:49:27.523Z,6.40
2023-04-13T20:52:00.318Z,4.65
2023-04-13T20:54:30.400Z,5.77
2023-04-13T20:57:01.295Z,6.67
2023-04-13T20:59:31.100Z,7.80
2023-04-13T21:02:01.267Z,8.90
2023-04-13T21:04:31.105Z,7.63
2023-04-13T21:07:02.335Z,7.20
2023-04-13T21:09:32.612Z,5.00
2023-04-13T21:12:02.440Z,6.60
2023-04-13T21:14:33.310Z,7.45
2023-04-13T21:17:03.182Z,6.77
2023-04-13T21:19:33.499Z,12.63
2023-04-13T21:22:06.294Z,8.48
2023-04-13T21:24:36.632Z,6.70
2023-04-13T21:27:06.428Z,5.80
2023-04-13T21:29:36.278Z,6.50
2023-04-13T21:32:07.917Z,7.67
2023-04-13T21:34:37.755Z,9.50
2023-04-13T21:37:07.719Z,5.00
2023-04-13T21:39:37.513Z,5.40
2023-04-13T21:42:09.153Z,8.33
2023-04-13T21:44:39.046Z,7.37
2023-04-13T21:47:08.901Z,10.17
2023-04-13T21:49:38.715Z,6.87
2023-04-13T21:52:09.805Z,7.83
2023-04-13T21:54:39.627Z,6.50
2023-04-13T21:57:10.258Z,6.55
2023-04-13T21:59:41.059Z,7.72
2023-04-13T22:02:11.521Z,13.24
2023-04-13T22:04:41.413Z,8.57
2023-04-13T22:07:11.249Z,8.97
2023-04-13T22:09:41.110Z,11.33
2023-04-13T22:12:11.478Z,7.58
2023-04-13T22:14:41.660Z,5.75
2023-04-13T22:17:13.244Z,6.28
2023-04-13T22:19:43.366Z,11.90
2023-04-13T22:22:13.155Z,7.03
2023-04-13T22:24:42.944Z,8.83
2023-04-13T22:27:12.785Z,6.60
2023-04-13T22:29:42.640Z,6.77
2023-04-13T22:32:13.258Z,7.33
2023-04-13T22:34:43.142Z,6.07
2023-04-13T22:37:15.635Z,4.73
2023-04-13T22:39:45.043Z,6.73
2023-04-13T22:42:14.872Z,6.37
2023-04-13T22:44:44.732Z,8.80
2023-04-13T22:47:14.916Z,10.13
2023-04-13T22:49:44.756Z,6.50
2023-04-13T22:52:21.807Z,10.28
2023-04-13T22:54:51.765Z,7.77
2023-04-13T22:57:21.831Z,6.03
2023-04-13T22:59:51.678Z,5.20
2023-04-13T23:02:21.625Z,8.93
2023-04-13T23:04:51.769Z,7.47
2023-04-13T23:07:21.936Z,7.63
2023-04-13T23:09:54.403Z,7.20
2023-04-13T23:12:24.107Z,8.93
2023-04-13T23:14:54.000Z,13.47
2023-04-13T23:17:23.834Z,7.93
2023-04-13T23:19:56.592Z,10.13
2023-04-13T23:22:26.538Z,11.78
2023-04-13T23:24:56.630Z,13.50
2023-04-13T23:27:26.745Z,11.63
2023-04-13T23:29:56.617Z,9.10
2023-04-13T23:32:26.496Z,12.47
2023-04-13T23:34:56.351Z,12.17
2023-04-13T23:37:25.926Z,9.30
2023-04-13T23:39:55.831Z,10.73
2023-04-13T23:42:25.751Z,12.67
2023-04-13T23:44:56.211Z,14.53
2023-04-13T23:47:26.482Z,8.57
2023-04-13T23:49:56.327Z,11.37
2023-04-13T23:52:26.148Z,15.45
2023-04-13T23:54:56.151Z,13.97
2023-04-13T23:57:26.058Z,11.53
2023-04-13T23:59:58.709Z,10.07
